createdAt,value
2023-05-05T04:53:15.670Z,56.25
2023-05-05T04:54:15.630Z,56.25
2023-05-05T04:55:15.594Z,61.88
2023-05-05T04:56:15.602Z,61.88
2023-05-05T04:57:15.570Z,67.50
2023-05-05T04:58:15.567Z,73.12
2023-05-05T04:59:15.560Z,84.38
2023-05-05T05:00:15.548Z,84.38
2023-05-05T05:01:15.527Z,84.38
2023-05-05T05:02:15.575Z,84.38
2023-05-05T05:03:15.597Z,78.75
2023-05-05T05:04:20.514Z,78.75
2023-05-05T05:05:15.479Z,67.50
2023-05-05T05:06:15.479Z,73.12
2023-05-05T05:07:15.458Z,73.12
2023-05-05T05:08:15.478Z,84.38
2023-05-05T05:09:15.462Z,90.00
2023-05-05T05:10:15.442Z,90.00
2023-05-05T05:11:15.440Z,95.62
2023-05-05T05:12:15.412Z,95.62
2023-05-05T05:13:15.495Z,90.00
2023-05-05T05:14:15.386Z,90.00
2023-05-05T05:15:20.459Z,101.25
2023-05-05T05:16:15.388Z,95.62
2023-05-05T05:17:15.353Z,90.00
2023-05-05T05:18:15.337Z,78.75
2023-05-05T05:19:15.328Z,73.12
2023-05-05T05:20:15.338Z,73.12
2023-05-05T05:21:15.305Z,73.12
2023-05-05T05:22:15.302Z,90.00
2023-05-05T05:23:15.278Z,101.25
2023-05-05T05:24:15.274Z,95.62
2023-05-05T05:25:15.278Z,90.00
2023-05-05T05:26:20.301Z,95.62
2023-05-05T05:27:15.245Z,95.62
2023-05-05T05:28:15.222Z,95.62
2023-05-05T05:29:15.221Z,106.88
2023-05-05T05:30:15.208Z,90.00
2023-05-05T05:31:15.200Z,84.38
2023-05-05T05:32:15.216Z,84.38
2023-05-05T05:33:15.168Z,84.38
2023-05-05T05:34:15.189Z,84.38
2023-05-05T05:35:15.144Z,95.62
2023-05-05T05:36:15.148Z,95.62
2023-05-05T05:37:20.161Z,84.38
2023-05-05T05:38:15.123Z,90.00
2023-05-05T05:39:15.114Z,90.00
2023-05-05T05:40:15.095Z,101.25
2023-05-05T05:41:15.106Z,106.88
2023-05-05T05:42:15.071Z,106.88
2023-05-05T05:43:15.053Z,101.25
2023-05-05T05:44:15.048Z,101.25
2023-05-05T05:45:15.061Z,95.62
2023-05-05T05:46:15.169Z,101.25
2023-05-05T05:47:15.011Z,101.25
2023-05-05T05:48:20.024Z,101.25
2023-05-05T05:49:14.988Z,101.25
2023-05-05T05:50:14.987Z,101.25
2023-05-05T05:51:14.976Z,101.25
2023-05-05T05:52:14.955Z,112.50
2023-05-05T05:53:14.948Z,101.25
2023-05-05T05:54:14.930Z,95.62
2023-05-05T05:55:14.931Z,84.38
2023-05-05T05:56:14.962Z,84.38
2023-05-05T05:57:14.935Z,84.38
2023-05-05T05:58:14.890Z,78.75
2023-05-05T05:59:19.904Z,90.00
2023-05-05T06:00:14.886Z,84.38
2023-05-05T06:01:14.869Z,84.38
2023-05-05T06:02:14.891Z,95.62
2023-05-05T06:03:15.025Z,95.62
2023-05-05T06:04:14.844Z,95.62
2023-05-05T06:05:14.837Z,95.62
2023-05-05T06:06:14.792Z,95.62
2023-05-05T06:07:14.782Z,95.62
2023-05-05T06:08:14.769Z,90.00
2023-05-05T06:09:14.769Z,101.25
2023-05-05T06:11:14.748Z,95.62
2023-05-05T06:12:14.731Z,101.25
2023-05-05T06:13:14.795Z,106.88
2023-05-05T06:14:14.726Z,112.50
2023-05-05T06:15:14.695Z,112.50
2023-05-05T06:16:14.722Z,118.12
2023-05-05T06:17:14.697Z,123.75
2023-05-05T06:18:14.713Z,123.75
2023-05-05T06:19:14.657Z,118.12
2023-05-05T06:20:14.659Z,118.12
2023-05-05T06:21:19.651Z,118.12
2023-05-05T06:22:14.616Z,123.75
2023-05-05T06:23:14.631Z,123.75
2023-05-05T06:24:14.613Z,123.75
2023-05-05T06:25:14.579Z,129.38
2023-05-05T06:26:14.566Z,129.38
2023-05-05T06:27:14.587Z,129.38
2023-05-05T06:28:14.560Z,129.38
2023-05-05T06:29:14.566Z,129.38
2023-05-05T06:30:14.564Z,129.38
2023-05-05T06:31:14.569Z,135.00
2023-05-05T06:32:19.524Z,140.62
2023-05-05T06:33:14.514Z,146.25
2023-05-05T06:34:14.516Z,151.88
2023-05-05T06:35:14.478Z,146.25
2023-05-05T06:36:14.542Z,123.75
2023-05-05T06:37:14.449Z,112.50
2023-05-05T06:38:14.448Z,101.25
2023-05-05T06:39:16.019Z,95.62
2023-05-05T06:40:14.415Z,101.25
2023-05-05T06:41:14.404Z,101.25
2023-05-05T06:42:14.414Z,101.25
2023-05-05T06:43:19.419Z,95.62
2023-05-05T06:44:14.373Z,95.62
2023-05-05T06:45:14.391Z,95.62
2023-05-05T06:46:14.399Z,106.88
2023-05-05T06:47:14.358Z,123.75
2023-05-05T06:48:14.330Z,140.62
2023-05-05T06:49:14.319Z,140.62
2023-05-05T06:50:14.318Z,146.25
2023-05-05T06:51:14.298Z,146.25
2023-05-05T06:52:14.289Z,157.50
2023-05-05T06:53:14.270Z,168.75
2023-05-05T06:54:19.297Z,180.00
2023-05-05T06:55:14.249Z,208.12
2023-05-05T06:56:14.249Z,247.50
2023-05-05T06:57:14.242Z,230.62
2023-05-05T06:58:14.237Z,225.00
2023-05-05T06:59:14.206Z,225.00
2023-05-05T07:00:14.198Z,213.75
2023-05-05T07:01:14.309Z,208.12
2023-05-05T07:02:14.190Z,219.38
2023-05-05T07:03:14.313Z,219.38
2023-05-05T07:04:14.515Z,213.75
2023-05-05T07:05:19.164Z,230.62
2023-05-05T07:06:14.141Z,202.50
2023-05-05T07:07:14.150Z,202.50
2023-05-05T07:08:14.101Z,196.88
2023-05-05T07:09:16.390Z,174.38
2023-05-05T07:10:14.111Z,180.00
2023-05-05T07:11:14.483Z,202.50
2023-05-05T07:12:14.092Z,247.50
2023-05-05T07:13:14.132Z,236.25
2023-05-05T07:14:14.039Z,241.88
2023-05-05T07:15:26.745Z,253.12
2023-05-05T07:16:19.215Z,270.00
2023-05-05T07:17:14.022Z,264.38
2023-05-05T07:18:14.037Z,270.00
2023-05-05T07:19:13.994Z,275.62
2023-05-05T07:20:13.974Z,281.25
2023-05-05T07:21:13.976Z,286.88
2023-05-05T07:22:13.956Z,315.00
2023-05-05T07:23:13.954Z,292.50
2023-05-05T07:24:13.951Z,303.75
2023-05-05T07:25:13.933Z,275.62
2023-05-05T07:26:13.938Z,275.62
2023-05-05T07:27:18.920Z,270.00
2023-05-05T07:28:13.886Z,298.12
2023-05-05T07:29:13.966Z,275.62
2023-05-05T07:30:17.330Z,286.88
2023-05-05T07:31:13.857Z,270.00
2023-05-05T07:32:14.043Z,270.00
2023-05-05T07:33:13.843Z,275.62
2023-05-05T07:34:13.829Z,303.75
2023-05-05T07:35:13.838Z,258.75
2023-05-05T07:36:13.808Z,365.62
2023-05-05T07:37:13.789Z,281.25
2023-05-05T07:38:18.798Z,326.25
2023-05-05T07:39:13.772Z,331.88
2023-05-05T07:40:13.761Z,298.12
2023-05-05T07:41:13.741Z,337.50
2023-05-05T07:42:13.746Z,331.88
2023-05-05T07:43:13.717Z,388.12
2023-05-05T07:44:13.713Z,388.12
2023-05-05T07:45:13.701Z,315.00
2023-05-05T07:46:13.851Z,326.25
2023-05-05T07:47:13.670Z,298.12
2023-05-05T07:48:13.751Z,292.50
2023-05-05T07:49:18.680Z,292.50
2023-05-05T07:50:13.634Z,292.50
2023-05-05T07:51:13.633Z,281.25
2023-05-05T07:52:13.846Z,264.38
2023-05-05T07:53:15.089Z,264.38
2023-05-05T07:54:13.669Z,264.38
2023-05-05T07:55:13.592Z,275.62
2023-05-05T07:56:13.574Z,292.50
2023-05-05T07:57:13.563Z,315.00
2023-05-05T07:58:13.569Z,286.88
2023-05-05T07:59:13.549Z,326.25
2023-05-05T08:00:18.563Z,264.38
2023-05-05T08:01:13.520Z,264.38
2023-05-05T08:02:13.555Z,230.62
2023-05-05T08:03:13.586Z,213.75
2023-05-05T08:04:13.693Z,202.50
2023-05-05T08:05:13.490Z,196.88
2023-05-05T08:06:13.487Z,208.12
2023-05-05T08:07:13.456Z,219.38
2023-05-05T08:08:13.451Z,219.38
2023-05-05T08:09:13.434Z,253.12
2023-05-05T08:10:13.417Z,253.12
2023-05-05T08:11:18.451Z,275.62
2023-05-05T08:12:13.402Z,286.88
2023-05-05T08:13:13.484Z,286.88
2023-05-05T08:14:13.374Z,298.12
2023-05-05T08:15:13.357Z,320.62
2023-05-05T08:16:13.439Z,326.25
2023-05-05T08:17:13.346Z,303.75
2023-05-05T08:18:13.344Z,270.00
2023-05-05T08:19:27.522Z,253.12
2023-05-05T08:20:13.445Z,258.75
2023-05-05T08:21:13.452Z,275.62
2023-05-05T08:22:18.314Z,281.25
2023-05-05T08:23:13.286Z,281.25
2023-05-05T08:24:13.268Z,303.75
2023-05-05T08:25:13.346Z,326.25
2023-05-05T08:26:13.241Z,371.25
2023-05-05T08:27:13.240Z,410.62
2023-05-05T08:28:13.242Z,427.50
2023-05-05T08:29:13.207Z,427.50
2023-05-05T08:30:13.202Z,1170.00
2023-05-05T08:31:13.321Z,1963.12
2023-05-05T08:32:13.188Z,1558.12
2023-05-05T08:33:18.219Z,939.38
2023-05-05T08:34:13.202Z,753.75
2023-05-05T08:35:13.490Z,388.12
2023-05-05T08:36:13.304Z,320.62
2023-05-05T08:37:13.141Z,483.75
2023-05-05T08:38:13.137Z,838.12
2023-05-05T08:39:13.100Z,826.88
2023-05-05T08:40:13.090Z,562.50
2023-05-05T08:41:13.092Z,686.25
2023-05-05T08:42:19.699Z,399.38
2023-05-05T08:43:13.061Z,286.88
2023-05-05T08:44:18.074Z,393.75
2023-05-05T08:45:13.145Z,607.50
2023-05-05T08:46:13.069Z,691.88
2023-05-05T08:47:13.022Z,1040.62
2023-05-05T08:48:13.083Z,1046.25
2023-05-05T08:49:12.986Z,748.12
2023-05-05T08:50:12.967Z,624.38
2023-05-05T08:51:12.975Z,466.88
2023-05-05T08:52:13.261Z,382.50
2023-05-05T08:53:12.941Z,478.12
2023-05-05T08:54:12.926Z,624.38
2023-05-05T08:55:18.082Z,506.25
2023-05-05T08:56:12.921Z,646.88
2023-05-05T08:57:12.908Z,1215.00
2023-05-05T08:58:12.878Z,1580.62
2023-05-05T08:59:12.868Z,1890.00
2023-05-05T09:00:12.870Z,1715.62
2023-05-05T09:01:12.915Z,1850.62
2023-05-05T09:02:12.912Z,2002.50
2023-05-05T09:03:12.927Z,950.62
2023-05-05T09:04:12.813Z,483.75
2023-05-05T09:05:12.813Z,438.75
2023-05-05T09:06:17.819Z,433.12
2023-05-05T09:07:12.792Z,781.88
2023-05-05T09:08:12.901Z,438.75
2023-05-05T09:09:12.761Z,331.88
2023-05-05T09:10:12.766Z,281.25
2023-05-05T09:11:12.760Z,270.00
2023-05-05T09:12:12.738Z,326.25
2023-05-05T09:13:12.757Z,270.00
2023-05-05T09:14:12.715Z,264.38
2023-05-05T09:15:12.706Z,264.38
2023-05-05T09:16:12.820Z,298.12
2023-05-05T09:17:17.693Z,371.25
2023-05-05T09:18:12.710Z,585.00
2023-05-05T09:19:12.660Z,590.62
2023-05-05T09:20:12.656Z,326.25
2023-05-05T09:21:12.639Z,320.62
2023-05-05T09:22:12.632Z,438.75
2023-05-05T09:23:12.610Z,714.38
2023-05-05T09:24:12.647Z,967.50
2023-05-05T09:25:12.631Z,1198.12
2023-05-05T09:26:12.653Z,1068.75
2023-05-05T09:27:12.561Z,894.38
2023-05-05T09:28:17.620Z,540.00
2023-05-05T09:29:12.644Z,472.50
2023-05-05T09:30:12.541Z,461.25
2023-05-05T09:31:12.604Z,511.88
2023-05-05T09:32:12.513Z,523.12
2023-05-05T09:33:12.642Z,1051.88
2023-05-05T09:34:12.508Z,1597.50
2023-05-05T09:35:12.481Z,1597.50
2023-05-05T09:36:12.489Z,770.62
2023-05-05T09:37:12.459Z,1018.12
2023-05-05T09:38:12.468Z,776.25
2023-05-05T09:39:17.589Z,1085.62
2023-05-05T09:40:12.437Z,1293.75
2023-05-05T09:41:12.409Z,1383.75
2023-05-05T09:42:12.402Z,1338.75
2023-05-05T09:43:12.409Z,911.25
2023-05-05T09:44:12.390Z,928.12
2023-05-05T09:45:12.386Z,646.88
2023-05-05T09:46:12.400Z,511.88
2023-05-05T09:47:25.994Z,663.75
2023-05-05T09:48:13.387Z,455.62
2023-05-05T09:49:12.336Z,427.50
2023-05-05T09:50:17.340Z,427.50
2023-05-05T09:51:12.301Z,399.38
2023-05-05T09:52:12.320Z,410.62
2023-05-05T09:53:12.276Z,511.88
2023-05-05T09:54:12.264Z,635.62
2023-05-05T09:55:12.345Z,658.12
2023-05-05T09:56:12.262Z,883.12
2023-05-05T09:57:12.241Z,736.88
2023-05-05T09:58:12.319Z,781.88
2023-05-05T09:59:12.209Z,798.75
2023-05-05T10:00:12.262Z,1012.50
2023-05-05T10:01:17.256Z,652.50
2023-05-05T10:02:12.187Z,405.00
2023-05-05T10:03:12.164Z,382.50
2023-05-05T10:04:12.193Z,354.38
2023-05-05T10:05:12.213Z,450.00
2023-05-05T10:06:12.157Z,450.00
2023-05-05T10:07:12.156Z,877.50
2023-05-05T10:08:12.115Z,607.50
2023-05-05T10:09:12.102Z,675.00
2023-05-05T10:10:12.235Z,613.12
2023-05-05T10:11:12.101Z,810.00
2023-05-05T10:12:17.088Z,523.12
2023-05-05T10:13:12.155Z,534.38
2023-05-05T10:14:12.041Z,753.75
2023-05-05T10:15:12.025Z,787.50
2023-05-05T10:16:12.088Z,1305.00
2023-05-05T10:17:12.007Z,686.25
2023-05-05T10:18:12.027Z,1051.88
2023-05-05T10:19:11.991Z,624.38
2023-05-05T10:20:12.006Z,315.00
2023-05-05T10:21:11.974Z,292.50
2023-05-05T10:22:11.994Z,281.25
2023-05-05T10:23:16.961Z,258.75
2023-05-05T10:24:11.967Z,292.50
2023-05-05T10:25:11.934Z,360.00
2023-05-05T10:26:11.903Z,450.00
2023-05-05T10:27:12.729Z,410.62
2023-05-05T10:28:11.954Z,478.12
2023-05-05T10:29:11.871Z,776.25
2023-05-05T10:30:11.884Z,1051.88
2023-05-05T10:31:24.247Z,928.12
2023-05-05T10:32:33.418Z,1293.75
2023-05-05T10:33:30.419Z,714.38
2023-05-05T10:34:16.959Z,585.00
2023-05-05T10:35:11.821Z,770.62
2023-05-05T10:36:11.802Z,613.12
2023-05-05T10:37:11.791Z,669.38
2023-05-05T10:38:11.777Z,1035.00
2023-05-05T10:39:11.784Z,1395.00
2023-05-05T10:40:11.786Z,1035.00
2023-05-05T10:41:11.756Z,1198.12
2023-05-05T10:42:11.750Z,731.25
2023-05-05T10:43:11.816Z,765.00
2023-05-05T10:44:11.725Z,1411.88
2023-05-05T10:45:16.767Z,1406.25
2023-05-05T10:46:11.759Z,1226.25
2023-05-05T10:47:11.704Z,826.88
2023-05-05T10:48:11.799Z,720.00
2023-05-05T10:49:13.095Z,624.38
2023-05-05T10:50:11.647Z,511.88
2023-05-05T10:51:11.637Z,545.62
2023-05-05T10:52:11.736Z,500.62
2023-05-05T10:53:11.629Z,495.00
2023-05-05T10:54:11.642Z,489.38
2023-05-05T10:55:11.597Z,500.62
2023-05-05T10:56:11.582Z,500.62
2023-05-05T10:57:11.575Z,511.88
2023-05-05T10:58:16.689Z,568.12
2023-05-05T10:59:11.576Z,540.00
2023-05-05T11:00:12.565Z,596.25
2023-05-05T11:01:11.631Z,495.00
2023-05-05T11:02:11.517Z,579.38
2023-05-05T11:03:11.586Z,781.88
2023-05-05T11:04:11.507Z,770.62
2023-05-05T11:05:11.482Z,641.25
2023-05-05T11:06:11.487Z,630.00
2023-05-05T11:07:14.662Z,545.62
2023-05-05T11:08:11.479Z,601.88
2023-05-05T11:09:16.460Z,894.38
2023-05-05T11:10:11.660Z,1209.38
2023-05-05T11:11:11.422Z,1226.25
2023-05-05T11:12:11.409Z,540.00
2023-05-05T11:13:11.424Z,444.38
2023-05-05T11:14:11.479Z,483.75
2023-05-05T11:15:11.378Z,804.38
2023-05-05T11:16:11.438Z,1203.75
2023-05-05T11:17:11.371Z,1130.62
2023-05-05T11:18:11.438Z,1170.00
2023-05-05T11:19:11.339Z,545.62
2023-05-05T11:20:16.347Z,455.62
2023-05-05T11:21:11.315Z,781.88
2023-05-05T11:22:11.326Z,556.88
2023-05-05T11:23:11.296Z,866.25
2023-05-05T11:24:11.279Z,1524.38
2023-05-05T11:25:11.263Z,810.00
2023-05-05T11:26:11.267Z,1254.38
2023-05-05T11:27:11.248Z,551.25
2023-05-05T11:28:11.429Z,585.00
2023-05-05T11:29:11.216Z,607.50
2023-05-05T11:30:11.569Z,585.00
2023-05-05T11:31:16.253Z,461.25
2023-05-05T11:32:11.228Z,427.50
2023-05-05T11:33:11.203Z,393.75
2023-05-05T11:34:11.202Z,326.25
2023-05-05T11:35:11.175Z,326.25
2023-05-05T11:36:11.154Z,416.25
2023-05-05T11:37:11.140Z,461.25
2023-05-05T11:38:11.120Z,579.38
2023-05-05T11:39:11.112Z,466.88
2023-05-05T11:40:11.117Z,438.75
2023-05-05T11:41:11.098Z,337.50
2023-05-05T11:42:11.196Z,568.12
2023-05-05T11:43:11.064Z,855.00
2023-05-05T11:44:16.078Z,585.00
2023-05-05T11:45:11.037Z,759.38
2023-05-05T11:46:11.225Z,2283.75
2023-05-05T11:47:11.031Z,1254.38
2023-05-05T11:48:11.090Z,3200.62
2023-05-05T11:49:11.001Z,3161.25
2023-05-05T11:50:10.996Z,2469.38
2023-05-05T11:51:10.982Z,3780.00
2023-05-05T11:52:10.991Z,3768.75
2023-05-05T11:53:10.950Z,3633.75
2023-05-05T11:54:10.940Z,3639.38
2023-05-05T11:55:15.963Z,3268.12
2023-05-05T11:56:10.957Z,3684.38
2023-05-05T11:57:10.952Z,3363.75
2023-05-05T11:58:10.933Z,3279.38
2023-05-05T11:59:10.891Z,3313.12
2023-05-05T12:00:11.060Z,3436.88
2023-05-05T12:01:10.873Z,3391.88
2023-05-05T12:02:11.018Z,3414.38
2023-05-05T12:03:10.915Z,2446.88
2023-05-05T12:04:10.921Z,3279.38
2023-05-05T12:05:10.898Z,3015.00
2023-05-05T12:06:10.823Z,3161.25
2023-05-05T12:07:10.801Z,1878.75
2023-05-05T12:08:15.813Z,3566.25
2023-05-05T12:09:10.784Z,3746.25
2023-05-05T12:10:10.866Z,3870.00
2023-05-05T12:11:10.783Z,3909.38
2023-05-05T12:12:10.845Z,4050.00
2023-05-05T12:13:10.752Z,2908.12
2023-05-05T12:14:10.789Z,4213.12
2023-05-05T12:15:10.727Z,3138.75
2023-05-05T12:16:10.796Z,3459.38
2023-05-05T12:17:10.697Z,3864.38
2023-05-05T12:18:10.863Z,3858.75
2023-05-05T12:19:15.812Z,3915.00
2023-05-05T12:20:11.211Z,3071.25
2023-05-05T12:21:10.655Z,2840.62
2023-05-05T12:22:10.645Z,1411.88
2023-05-05T12:23:10.635Z,838.12
2023-05-05T12:24:10.636Z,2818.12
2023-05-05T12:25:10.630Z,472.50
2023-05-05T12:26:10.609Z,1608.75
2023-05-05T12:27:10.593Z,2576.25
2023-05-05T12:28:10.600Z,1226.25
2023-05-05T12:29:10.696Z,1344.38
2023-05-05T12:30:15.628Z,528.75
2023-05-05T12:31:10.579Z,590.62
2023-05-05T12:32:10.582Z,551.25
2023-05-05T12:33:10.544Z,483.75
2023-05-05T12:34:10.567Z,388.12
2023-05-05T12:35:10.516Z,489.38
2023-05-05T12:36:10.539Z,500.62
2023-05-05T12:37:10.498Z,478.12
2023-05-05T12:38:10.499Z,433.12
2023-05-05T12:39:10.472Z,393.75
2023-05-05T12:40:10.611Z,371.25
2023-05-05T12:41:15.477Z,343.12
2023-05-05T12:42:10.468Z,337.50
2023-05-05T12:43:10.562Z,331.88
2023-05-05T12:44:10.442Z,326.25
2023-05-05T12:45:10.402Z,320.62
2023-05-05T12:46:10.494Z,315.00
2023-05-05T12:47:10.395Z,303.75
2023-05-05T12:48:10.375Z,309.38
2023-05-05T12:49:10.362Z,292.50
2023-05-05T12:50:10.818Z,292.50
2023-05-05T12:51:10.343Z,281.25
2023-05-05T12:52:10.339Z,281.25
2023-05-05T12:53:10.325Z,286.88
2023-05-05T12:54:15.332Z,298.12
2023-05-05T12:55:10.431Z,337.50
2023-05-05T12:56:10.360Z,399.38
2023-05-05T12:57:10.280Z,410.62
2023-05-05T12:58:10.267Z,461.25
2023-05-05T12:59:10.276Z,461.25
2023-05-05T13:00:10.352Z,427.50
2023-05-05T13:01:10.261Z,410.62
2023-05-05T13:02:10.314Z,405.00
2023-05-05T13:03:10.288Z,371.25
2023-05-05T13:04:10.198Z,343.12
2023-05-05T13:05:10.419Z,320.62
2023-05-05T13:06:10.205Z,303.75
2023-05-05T13:07:15.209Z,298.12
2023-05-05T13:08:10.190Z,298.12
2023-05-05T13:09:10.181Z,298.12
2023-05-05T13:10:10.142Z,309.38
2023-05-05T13:11:10.130Z,315.00
2023-05-05T13:12:10.115Z,320.62
2023-05-05T13:13:10.133Z,331.88
2023-05-05T13:14:10.128Z,343.12
2023-05-05T13:15:10.306Z,360.00
2023-05-05T13:16:10.181Z,365.62
2023-05-05T13:17:10.052Z,371.25
2023-05-05T13:18:15.066Z,382.50
2023-05-05T13:19:10.062Z,382.50
2023-05-05T13:20:10.105Z,382.50
2023-05-05T13:21:10.008Z,376.88
2023-05-05T13:22:10.038Z,371.25
2023-05-05T13:23:09.990Z,382.50
2023-05-05T13:24:21.285Z,399.38
2023-05-05T13:25:11.219Z,399.38
2023-05-05T13:26:10.014Z,399.38
2023-05-05T13:27:09.948Z,388.12
2023-05-05T13:28:09.939Z,360.00
2023-05-05T13:29:14.959Z,348.75
2023-05-05T13:30:09.940Z,331.88
2023-05-05T13:31:09.920Z,326.25
2023-05-05T13:32:09.914Z,315.00
2023-05-05T13:33:09.913Z,303.75
2023-05-05T13:34:09.878Z,303.75
2023-05-05T13:35:10.077Z,292.50
2023-05-05T13:36:09.883Z,298.12
2023-05-05T13:37:09.837Z,315.00
2023-05-05T13:38:10.019Z,337.50
2023-05-05T13:39:09.863Z,360.00
2023-05-05T13:40:14.842Z,343.12
2023-05-05T13:41:09.801Z,337.50
2023-05-05T13:42:09.784Z,331.88
2023-05-05T13:43:09.767Z,326.25
2023-05-05T13:44:09.785Z,315.00
2023-05-05T13:45:09.913Z,315.00
2023-05-05T13:46:19.143Z,315.00
2023-05-05T13:47:09.763Z,303.75
2023-05-05T13:48:09.785Z,303.75
2023-05-05T13:49:09.732Z,309.38
2023-05-05T13:50:09.724Z,320.62
2023-05-05T13:51:14.719Z,337.50
2023-05-05T13:52:09.672Z,354.38
2023-05-05T13:53:09.671Z,354.38
2023-05-05T13:54:09.754Z,354.38
2023-05-05T13:55:09.908Z,354.38
2023-05-05T13:56:09.628Z,326.25
2023-05-05T13:57:09.640Z,337.50
2023-05-05T13:58:09.616Z,309.38
2023-05-05T13:59:09.598Z,303.75
2023-05-05T14:00:09.609Z,309.38
2023-05-05T14:01:09.655Z,281.25
2023-05-05T14:02:14.609Z,258.75
2023-05-05T14:03:09.581Z,270.00
2023-05-05T14:04:09.577Z,281.25
2023-05-05T14:05:09.669Z,298.12
2023-05-05T14:06:09.528Z,326.25
2023-05-05T14:07:09.533Z,343.12
2023-05-05T14:08:09.499Z,331.88
2023-05-05T14:09:09.512Z,320.62
2023-05-05T14:10:09.631Z,298.12
2023-05-05T14:11:09.485Z,286.88
2023-05-05T14:12:09.479Z,264.38
2023-05-05T14:13:14.578Z,253.12
2023-05-05T14:14:09.456Z,270.00
2023-05-05T14:15:09.709Z,275.62
2023-05-05T14:16:09.458Z,275.62
2023-05-05T14:17:09.412Z,281.25
2023-05-05T14:18:09.406Z,275.62
2023-05-05T14:19:09.379Z,275.62
2023-05-05T14:20:09.370Z,275.62
2023-05-05T14:21:09.409Z,264.38
2023-05-05T14:22:09.382Z,270.00
2023-05-05T14:23:09.351Z,264.38
2023-05-05T14:24:14.379Z,253.12
2023-05-05T14:25:09.509Z,230.62
2023-05-05T14:26:09.423Z,225.00
2023-05-05T14:27:09.311Z,219.38
2023-05-05T14:28:09.278Z,219.38
2023-05-05T14:29:09.284Z,225.00
2023-05-05T14:30:09.274Z,230.62
2023-05-05T14:31:09.263Z,225.00
2023-05-05T14:32:09.407Z,225.00
2023-05-05T14:33:09.237Z,230.62
2023-05-05T14:34:09.258Z,230.62
2023-05-05T14:35:14.244Z,225.00
2023-05-05T14:36:09.198Z,225.00
2023-05-05T14:37:09.197Z,219.38
2023-05-05T14:38:09.196Z,208.12
2023-05-05T14:39:09.160Z,191.25
2023-05-05T14:40:09.168Z,174.38
2023-05-05T14:41:09.150Z,157.50
2023-05-05T14:42:09.149Z,146.25
2023-05-05T14:43:09.121Z,135.00
2023-05-05T14:44:09.114Z,123.75
2023-05-05T14:45:09.339Z,118.12
2023-05-05T14:46:14.146Z,112.50
2023-05-05T14:47:09.102Z,112.50
2023-05-05T14:48:09.066Z,123.75
2023-05-05T14:49:09.062Z,129.38
2023-05-05T14:50:09.043Z,123.75
2023-05-05T14:51:09.046Z,118.12
2023-05-05T14:52:09.016Z,112.50
2023-05-05T14:53:09.040Z,106.88
2023-05-05T14:54:20.466Z,101.25
2023-05-05T14:55:09.323Z,101.25
2023-05-05T14:56:08.969Z,101.25
2023-05-05T14:57:14.073Z,101.25
2023-05-05T14:58:08.962Z,95.62
2023-05-05T14:59:08.987Z,95.62
2023-05-05T15:00:08.932Z,95.62
2023-05-05T15:01:08.953Z,95.62
2023-05-05T15:02:08.915Z,95.62
2023-05-05T15:03:09.005Z,95.62
2023-05-05T15:04:08.893Z,95.62
2023-05-05T15:05:09.053Z,90.00
2023-05-05T15:06:08.886Z,90.00
2023-05-05T15:07:08.850Z,90.00
2023-05-05T15:08:13.875Z,90.00
2023-05-05T15:09:08.833Z,84.38
2023-05-05T15:10:08.896Z,84.38
2023-05-05T15:11:08.847Z,84.38
2023-05-05T15:12:08.804Z,84.38
2023-05-05T15:13:08.990Z,90.00
2023-05-05T15:14:08.787Z,90.00
2023-05-05T15:15:09.094Z,90.00
2023-05-05T15:16:08.799Z,95.62
2023-05-05T15:17:08.766Z,95.62
2023-05-05T15:18:08.731Z,95.62
2023-05-05T15:19:13.740Z,90.00
2023-05-05T15:20:08.707Z,84.38
2023-05-05T15:21:08.700Z,90.00
2023-05-05T15:22:08.699Z,84.38
2023-05-05T15:23:08.709Z,90.00
2023-05-05T15:24:08.663Z,90.00
2023-05-05T15:25:08.888Z,95.62
2023-05-05T15:26:08.655Z,101.25
2023-05-05T15:27:08.641Z,101.25
2023-05-05T15:28:08.618Z,106.88
2023-05-05T15:29:08.831Z,106.88
2023-05-05T15:30:13.628Z,106.88
2023-05-05T15:31:08.596Z,101.25
2023-05-05T15:32:08.613Z,95.62
2023-05-05T15:33:08.561Z,95.62
2023-05-05T15:34:08.556Z,95.62
2023-05-05T15:35:08.759Z,101.25
2023-05-05T15:36:08.538Z,112.50
2023-05-05T15:37:08.533Z,118.12
2023-05-05T15:38:08.506Z,135.00
2023-05-05T15:39:08.494Z,146.25
2023-05-05T15:40:08.526Z,146.25
2023-05-05T15:41:13.528Z,140.62
2023-05-05T15:42:08.470Z,135.00
2023-05-05T15:43:08.448Z,129.38
2023-05-05T15:44:08.437Z,123.75
2023-05-05T15:45:08.756Z,118.12
2023-05-05T15:46:08.415Z,118.12
2023-05-05T15:47:08.522Z,112.50
2023-05-05T15:48:08.471Z,112.50
2023-05-05T15:49:08.382Z,112.50
2023-05-05T15:50:08.382Z,118.12
2023-05-05T15:51:08.365Z,118.12
2023-05-05T15:52:13.370Z,118.12
2023-05-05T15:53:08.355Z,118.12
2023-05-05T15:54:08.327Z,101.25
2023-05-05T15:55:08.659Z,95.62
2023-05-05T15:56:08.310Z,95.62
2023-05-05T15:57:08.308Z,101.25
2023-05-05T15:58:08.288Z,95.62
2023-05-05T15:59:08.308Z,90.00
2023-05-05T16:00:08.357Z,84.38
2023-05-05T16:01:08.416Z,78.75
2023-05-05T16:02:08.278Z,67.50
2023-05-05T16:03:13.360Z,67.50
2023-05-05T16:04:08.259Z,56.25
2023-05-05T16:05:08.448Z,45.00
2023-05-05T16:06:08.196Z,39.38
2023-05-05T16:07:08.189Z,33.75
2023-05-05T16:08:08.177Z,39.38
2023-05-05T16:09:08.191Z,39.38
2023-05-05T16:10:08.149Z,50.62
2023-05-05T16:11:08.148Z,61.88
2023-05-05T16:12:08.132Z,61.88
2023-05-05T16:13:08.196Z,67.50
2023-05-05T16:14:13.142Z,67.50
2023-05-05T16:15:08.400Z,73.12
2023-05-05T16:16:08.088Z,73.12
2023-05-05T16:17:08.222Z,61.88
2023-05-05T16:18:08.190Z,56.25
2023-05-05T16:19:08.068Z,50.62
2023-05-05T16:20:08.068Z,56.25
2023-05-05T16:21:08.046Z,50.62
2023-05-05T16:22:08.024Z,50.62
2023-05-05T16:23:08.031Z,45.00
2023-05-05T16:24:07.999Z,45.00
2023-05-05T16:25:13.011Z,45.00
2023-05-05T16:26:07.976Z,45.00
2023-05-05T16:27:07.973Z,50.62
2023-05-05T16:28:07.980Z,56.25
2023-05-05T16:29:07.961Z,61.88
2023-05-05T16:30:07.934Z,56.25
2023-05-05T16:31:07.920Z,56.25
2023-05-05T16:32:07.919Z,56.25
2023-05-05T16:33:08.156Z,50.62
2023-05-05T16:34:07.893Z,45.00
2023-05-05T16:35:08.052Z,39.38
2023-05-05T16:36:12.888Z,33.75
2023-05-05T16:37:07.863Z,39.38
2023-05-05T16:38:07.921Z,39.38
2023-05-05T16:39:07.848Z,39.38
2023-05-05T16:40:07.819Z,39.38
2023-05-05T16:41:07.871Z,45.00
2023-05-05T16:42:07.835Z,56.25
2023-05-05T16:43:07.804Z,67.50
2023-05-05T16:44:07.826Z,67.50
2023-05-05T16:45:08.069Z,56.25
2023-05-05T16:46:07.778Z,45.00
2023-05-05T16:47:12.903Z,33.75
2023-05-05T16:48:09.231Z,28.12
2023-05-05T16:49:07.815Z,33.75
2023-05-05T16:50:07.708Z,33.75
2023-05-05T16:51:07.702Z,33.75
2023-05-05T16:52:07.711Z,33.75
2023-05-05T16:53:07.685Z,39.38
2023-05-05T16:54:07.662Z,39.38
2023-05-05T16:55:07.898Z,45.00
2023-05-05T16:56:07.637Z,45.00
2023-05-05T16:57:07.646Z,45.00
2023-05-05T16:58:12.644Z,45.00
2023-05-05T16:59:07.612Z,45.00
2023-05-05T17:00:07.604Z,45.00
2023-05-05T17:01:07.581Z,50.62
2023-05-05T17:02:07.719Z,61.88
2023-05-05T17:03:07.566Z,67.50
2023-05-05T17:04:08.456Z,73.12
2023-05-05T17:05:08.070Z,73.12
2023-05-05T17:06:07.536Z,73.12
2023-05-05T17:07:07.550Z,67.50
2023-05-05T17:08:07.503Z,67.50
2023-05-05T17:09:12.514Z,67.50
2023-05-05T17:10:07.485Z,61.88
2023-05-05T17:11:08.497Z,61.88
2023-05-05T17:12:07.473Z,61.88
2023-05-05T17:13:07.490Z,61.88
2023-05-05T17:14:07.461Z,61.88
2023-05-05T17:15:07.543Z,61.88
2023-05-05T17:16:07.446Z,61.88
2023-05-05T17:17:07.413Z,61.88
2023-05-05T17:18:07.445Z,61.88
2023-05-05T17:19:07.387Z,67.50
2023-05-05T17:20:12.426Z,67.50
2023-05-05T17:21:07.372Z,73.12
2023-05-05T17:22:07.351Z,73.12
2023-05-05T17:23:07.337Z,73.12
2023-05-05T17:24:07.320Z,73.12
2023-05-05T17:25:07.495Z,73.12